DAOO

Es Senia Airport

Oran, Algeria
TAF DAOO 212300Z 2200/2224 24008KT FEW020 BKN030 BECMG 2204/2206 VRB02KT 9999 SCT026 BECMG 2208/2211 24012KT 9999 FEW026 SCT233 TEMPO 2213/2221 26022G42KT 9999 SCT026 TEMPO 2222/2224 7000 TSSHRA SCT023CB BKN026 BKN100
Issued Valid From Valid To
Jan-21 @ 23:00 UTC
(an hour ago)
Jan-22 @ 00:00 UTC
(28 minutes ago)
Jan-23 @ 00:00 UTC
(in 24 hours)
Jan-22 @ 00:00 to Jan-22 @ 04:00
TAF DAOO 212300Z 2200/2224 24008KT FEW020 BKN030
Wind Clouds
240° at 8 knots
  • Few at 2,000' AGL
  • Broken at 3,000' AGL
Becoming Jan-22 @ 04:00 to Jan-22 @ 08:00
BECMG 2204/2206 VRB02KT 9999 SCT026
Wind Visibility Clouds
Variable at 2 knots 10,000+ meters
  • Scattered at 2,600' AGL
Becoming Jan-22 @ 08:00 to Jan-23 @ 00:00
BECMG 2208/2211 24012KT 9999 FEW026 SCT233
Wind Visibility Clouds
240° at 12 knots 10,000+ meters
  • Few at 2,600' AGL
  • Scattered at 23,300' AGL
Temporary Jan-22 @ 13:00 to Jan-22 @ 21:00
TEMPO 2213/2221 26022G42KT 9999 SCT026
Wind Visibility Clouds
260° at 22 knots
 Gusting to 42 knots
10,000+ meters
  • Scattered at 2,600' AGL
Temporary Jan-22 @ 22:00 to Jan-23 @ 00:00
TEMPO 2222/2224 7000 TSSHRA SCT023CB BKN026 BKN100
Visibility Clouds Conditions
7,001 meters
  • Scattered at 2,300' AGL
  • Broken at 2,600' AGL
  • Broken at 10,000' AGL
  • Rain
  • Thunderstorm
TAF DAOO 212300Z 2200/2224 24008KT FEW020 BKN030 BECMG 2204/2206 VRB02KT 9999 SCT026 BECMG 2208/2211 24012KT 9999 FEW026 SCT233 TEMPO 2213/2221 26022G42KT 9999 SCT026 TEMPO 2222/2224 7000 TSSHRA SCT023CB BKN026 BKN100
Issued Jan-21 @ 23:00 UTC
(an hour ago)
Valid From Jan-22 @ 00:00 UTC
(28 minutes ago)
Valid To Jan-23 @ 00:00 UTC
(in 24 hours)
Jan-22 @ 00:00 - Jan-22 @ 04:00
Wind
240° at 8 knots
Clouds
  • Few at 2,000' AGL
  • Broken at 3,000' AGL
Becoming Jan-22 @ 04:00 - Jan-22 @ 08:00
Wind Visibility
Variable at 2 knots 10,000+ meters
Clouds
  • Scattered at 2,600' AGL
Becoming Jan-22 @ 08:00 - Jan-23 @ 00:00
Wind Visibility
240° at 12 knots 10,000+ meters
Clouds
  • Few at 2,600' AGL
  • Scattered at 23,300' AGL
Temporary Jan-22 @ 13:00 - Jan-22 @ 21:00
Wind Visibility
260° at 22 knots
 Gusting to 42 knots
10,000+ meters
Clouds
  • Scattered at 2,600' AGL
Temporary Jan-22 @ 22:00 - Jan-23 @ 00:00
Clouds
  • Scattered at 2,300' AGL
  • Broken at 2,600' AGL
  • Broken at 10,000' AGL
Conditions
  • Rain
  • Thunderstorm